Time;durP1;ratioP1;P1;durP2;ratioP2;P2;SDS_P1;SDS_P2;PMS_P1;PMS_P2;Temp;Humidity;BMP_temperature;BMP_pressure;BME280_temperature;BME280_humidity;BME280_pressure;Samples;Min_cycle;Max_cycle;Signal;HPM_P1;HPM_P2
2021/03/03 00:00:20;;;;;;;;;;;13.50;59.70;;;;;;5010894;27;76839;-62
2021/03/03 00:02:46;;;;;;;;;;;13.60;59.70;;;;;;5010083;27;74860;-63
2021/03/03 00:05:12;;;;;;;;;;;13.60;59.70;;;;;;5009040;28;77067;-70
2021/03/03 00:07:37;;;;;;;;;;;13.60;59.70;;;;;;5010436;28;75283;-68
2021/03/03 00:10:04;;;;;;;;;;;13.70;59.70;;;;;;5010229;27;75188;-66
2021/03/03 00:12:29;;;;;;;;;;;13.60;59.60;;;;;;5010804;28;75424;-63
2021/03/03 00:14:55;;;;;;;;;;;13.60;59.60;;;;;;5010592;27;74527;-65
2021/03/03 00:17:21;;;;;;;;;;;13.60;60.00;;;;;;5010759;28;74659;-63
2021/03/03 00:19:46;;;;;;;;;;;13.60;59.70;;;;;;5010529;28;74463;-66
2021/03/03 00:22:12;;;;;;;;;;;13.60;59.70;;;;;;5008594;28;75334;-64
2021/03/03 00:24:37;;;;;;;;;;;13.60;59.90;;;;;;5010493;28;75119;-63
2021/03/03 00:27:03;;;;;;;;;;;13.60;60.00;;;;;;5008663;27;75833;-68
2021/03/03 00:29:29;;;;;;;;;;;13.60;59.90;;;;;;5010534;28;74473;-61
2021/03/03 00:31:54;;;;;;;;;;;13.60;60.00;;;;;;5009436;27;75610;-66
2021/03/03 00:34:20;;;;;;;;;;;13.60;59.90;;;;;;5009670;27;75657;-68
2021/03/03 00:36:45;;;;;;;;;;;13.60;60.10;;;;;;5010532;27;77363;-62
2021/03/03 00:39:11;;;;;;;;;;;13.60;60.10;;;;;;5010176;27;75127;-69
2021/03/03 00:41:37;;;;;;;;;;;13.60;60.10;;;;;;5010170;28;75310;-63
2021/03/03 00:44:02;;;;;;;;;;;13.60;60.10;;;;;;5008383;28;75142;-69
2021/03/03 00:46:28;;;;;;;;;;;13.60;60.20;;;;;;5008626;28;75083;-65
2021/03/03 00:48:53;;;;;;;;;;;13.60;60.20;;;;;;5010336;28;74531;-63
2021/03/03 00:51:19;;;;;;;;;;;13.60;60.20;;;;;;5010010;27;75552;-68
2021/03/03 00:53:45;;;;;;;;;;;13.60;60.30;;;;;;5009948;28;75682;-63
2021/03/03 00:56:10;;;;;;;;;;;13.60;60.30;;;;;;5009701;27;74466;-63
2021/03/03 00:58:36;;;;;;;;;;;13.60;60.30;;;;;;5010007;28;75199;-66
2021/03/03 01:01:02;;;;;;;;;;;13.60;60.30;;;;;;5009561;28;75661;-67
2021/03/03 01:03:27;;;;;;;;;;;13.50;60.40;;;;;;5009601;28;75534;-64
2021/03/03 01:05:53;;;;;;;;;;;13.60;60.40;;;;;;5009513;27;74484;-77
2021/03/03 01:08:19;;;;;;;;;;;13.50;60.30;;;;;;5009654;28;75020;-69
2021/03/03 01:10:44;;;;;;;;;;;13.50;60.40;;;;;;5009808;28;75323;-69
2021/03/03 01:13:10;;;;;;;;;;;13.50;60.50;;;;;;5009931;27;74639;-70
2021/03/03 01:15:35;;;;;;;;;;;13.40;60.60;;;;;;5008375;27;74680;-68
2021/03/03 01:18:01;;;;;;;;;;;13.40;60.60;;;;;;5009562;27;75216;-63
2021/03/03 01:20:28;;;;;;;;;;;13.40;60.70;;;;;;5009220;28;75699;-65
2021/03/03 01:22:53;;;;;;;;;;;13.40;60.80;;;;;;5009289;28;75191;-67
2021/03/03 01:25:19;;;;;;;;;;;13.40;60.90;;;;;;5009046;27;75682;-62
2021/03/03 01:27:44;;;;;;;;;;;13.30;60.90;;;;;;5009575;28;75837;-72
2021/03/03 01:30:10;;;;;;;;;;;13.30;61.00;;;;;;5010484;27;77518;-67
2021/03/03 01:32:36;;;;;;;;;;;13.40;61.00;;;;;;5010452;28;74440;-61
2021/03/03 01:35:02;;;;;;;;;;;13.30;61.10;;;;;;5009643;27;74533;-65
2021/03/03 01:37:28;;;;;;;;;;;13.30;61.20;;;;;;5009651;28;74476;-62
2021/03/03 01:39:53;;;;;;;;;;;13.20;61.20;;;;;;5009454;28;75150;-66
2021/03/03 01:42:19;;;;;;;;;;;13.20;61.20;;;;;;5009265;27;74557;-62
2021/03/03 01:44:45;;;;;;;;;;;13.20;61.30;;;;;;5010054;28;76441;-75
2021/03/03 01:47:10;;;;;;;;;;;13.20;61.40;;;;;;5012153;27;75007;-66
2021/03/03 01:49:36;;;;;;;;;;;13.10;61.50;;;;;;5012199;28;75738;-66
2021/03/03 01:52:02;;;;;;;;;;;13.10;61.60;;;;;;5012362;27;75607;-73
2021/03/03 01:54:27;;;;;;;;;;;13.10;61.60;;;;;;5012223;27;75071;-62
2021/03/03 01:56:53;;;;;;;;;;;13.10;61.70;;;;;;5011268;28;77096;-66
2021/03/03 01:59:19;;;;;;;;;;;13.00;61.70;;;;;;5012354;27;74812;-74
2021/03/03 02:01:45;;;;;;;;;;;13.00;61.80;;;;;;5011573;28;75473;-63
2021/03/03 02:04:10;;;;;;;;;;;13.00;61.90;;;;;;5012443;27;75335;-63
2021/03/03 02:06:39;;;;;;;;;;;13.00;61.90;;;;;;5011875;28;75474;-63
2021/03/03 02:09:05;;;;;;;;;;;13.00;62.00;;;;;;5010304;27;78048;-63
2021/03/03 02:11:43;;;;;;;;;;;13.00;62.00;;;;;;5012451;28;74964;-63
2021/03/03 02:14:12;;;;;;;;;;;13.00;61.90;;;;;;5012291;28;74511;-68
2021/03/03 02:16:38;;;;;;;;;;;13.00;62.00;;;;;;5011577;27;75113;-68
2021/03/03 02:19:04;;;;;;;;;;;13.00;62.00;;;;;;5011997;28;75766;-62
2021/03/03 02:21:34;;;;;;;;;;;13.00;62.00;;;;;;5011414;27;74494;-66
2021/03/03 02:24:09;;;;;;;;;;;13.00;62.00;;;;;;5011794;27;77648;-71
2021/03/03 02:26:36;;;;;;;;;;;13.00;62.00;;;;;;5009847;27;78151;-64
2021/03/03 02:29:06;;;;;;;;;;;13.00;62.00;;;;;;5009972;28;77447;-63
2021/03/03 02:31:32;;;;;;;;;;;12.90;62.10;;;;;;5012314;28;74404;-63
2021/03/03 02:33:59;;;;;;;;;;;12.90;62.10;;;;;;5011685;27;74441;-64
2021/03/03 02:36:25;;;;;;;;;;;12.90;62.30;;;;;;5011383;28;74894;-67
2021/03/03 02:38:51;;;;;;;;;;;12.90;62.30;;;;;;5011569;28;75478;-74
2021/03/03 02:41:18;;;;;;;;;;;12.90;62.30;;;;;;5014655;28;74621;-69
2021/03/03 02:43:44;;;;;;;;;;;12.90;62.40;;;;;;5011497;27;77224;-62
2021/03/03 02:46:10;;;;;;;;;;;12.90;62.50;;;;;;5011746;28;74408;-62
2021/03/03 02:48:36;;;;;;;;;;;12.90;62.50;;;;;;5011443;28;75162;-71
2021/03/03 02:51:02;;;;;;;;;;;12.90;62.40;;;;;;5011280;27;74500;-64
2021/03/03 02:53:28;;;;;;;;;;;12.90;62.50;;;;;;5011429;27;77905;-72
2021/03/03 02:55:53;;;;;;;;;;;12.80;62.70;;;;;;5010734;27;75307;-67
2021/03/03 02:58:22;;;;;;;;;;;12.80;62.80;;;;;;5011268;28;75122;-65
2021/03/03 03:00:49;;;;;;;;;;;12.70;62.80;;;;;;5010712;27;75594;-68
2021/03/03 03:03:26;;;;;;;;;;;12.70;62.90;;;;;;5011879;27;76274;-72
2021/03/03 03:06:00;;;;;;;;;;;12.60;63.10;;;;;;5010953;28;75139;-69
2021/03/03 03:08:26;;;;;;;;;;;12.50;63.10;;;;;;5011054;27;75188;-66
2021/03/03 03:10:52;;;;;;;;;;;12.40;63.50;;;;;;5011669;27;77049;-65
2021/03/03 03:13:18;;;;;;;;;;;12.40;63.80;;;;;;5010779;27;75549;-61
2021/03/03 03:15:45;;;;;;;;;;;12.40;63.90;;;;;;5011463;28;74475;-63
2021/03/03 03:18:14;;;;;;;;;;;12.30;64.00;;;;;;5010741;27;75328;-64
2021/03/03 03:20:40;;;;;;;;;;;12.30;64.20;;;;;;5010917;28;75344;-65
2021/03/03 03:23:06;;;;;;;;;;;12.20;64.30;;;;;;5011097;28;74411;-65
2021/03/03 03:25:32;;;;;;;;;;;12.20;64.40;;;;;;5010780;27;74844;-69
2021/03/03 03:27:58;;;;;;;;;;;12.20;64.50;;;;;;5009413;27;74996;-68
2021/03/03 03:30:24;;;;;;;;;;;12.20;64.50;;;;;;5010633;27;75143;-64
2021/03/03 03:32:50;;;;;;;;;;;12.10;64.50;;;;;;5010773;28;75741;-68
2021/03/03 03:35:17;;;;;;;;;;;12.20;64.60;;;;;;5011088;27;74428;-65
2021/03/03 03:37:42;;;;;;;;;;;12.10;64.60;;;;;;5011591;28;74718;-64
2021/03/03 03:40:08;;;;;;;;;;;12.10;64.70;;;;;;5009238;27;77161;-62
2021/03/03 03:42:35;;;;;;;;;;;12.00;64.80;;;;;;5010468;27;74549;-63
2021/03/03 03:45:01;;;;;;;;;;;12.00;65.00;;;;;;5009015;28;77096;-62
2021/03/03 03:47:26;;;;;;;;;;;12.00;65.10;;;;;;5010292;27;75077;-72
2021/03/03 03:49:52;;;;;;;;;;;12.00;65.10;;;;;;5010614;28;75182;-67
2021/03/03 03:52:18;;;;;;;;;;;11.90;65.10;;;;;;5010828;28;75150;-79
2021/03/03 03:54:51;;;;;;;;;;;11.90;65.40;;;;;;5010804;27;75123;-79
2021/03/03 03:57:17;;;;;;;;;;;11.90;65.50;;;;;;5011370;28;74608;-70
2021/03/03 03:59:43;;;;;;;;;;;11.90;65.50;;;;;;5010858;27;75226;-66
2021/03/03 04:02:09;;;;;;;;;;;11.90;65.50;;;;;;5011048;28;74578;-72
2021/03/03 04:04:34;;;;;;;;;;;11.90;65.70;;;;;;5009012;27;74445;-63
2021/03/03 04:07:00;;;;;;;;;;;11.90;65.90;;;;;;5009429;28;74414;-69
2021/03/03 04:09:25;;;;;;;;;;;11.90;65.90;;;;;;5011270;28;74446;-66
2021/03/03 04:11:51;;;;;;;;;;;11.90;65.90;;;;;;5010469;27;77582;-68
2021/03/03 04:14:17;;;;;;;;;;;11.90;65.90;;;;;;5010655;27;76991;-79
2021/03/03 04:16:42;;;;;;;;;;;12.00;65.90;;;;;;5008798;27;76920;-79
2021/03/03 04:19:08;;;;;;;;;;;12.00;65.80;;;;;;5011185;28;74507;-65
2021/03/03 04:21:33;;;;;;;;;;;12.00;65.70;;;;;;5008699;27;77585;-68
2021/03/03 04:23:59;;;;;;;;;;;12.10;65.60;;;;;;5008783;27;76151;-77
2021/03/03 04:26:25;;;;;;;;;;;12.20;65.60;;;;;;5011695;28;75333;-65
2021/03/03 04:28:50;;;;;;;;;;;12.20;65.40;;;;;;5012020;27;75455;-71
2021/03/03 04:31:16;;;;;;;;;;;12.20;65.20;;;;;;5011933;28;74475;-78
2021/03/03 04:33:41;;;;;;;;;;;12.20;65.30;;;;;;5009218;28;77336;-66
2021/03/03 04:36:07;;;;;;;;;;;12.30;65.30;;;;;;5011461;28;74499;-80
2021/03/03 04:38:33;;;;;;;;;;;12.30;65.30;;;;;;5012529;27;77307;-65
2021/03/03 04:40:58;;;;;;;;;;;12.30;65.20;;;;;;5014142;28;74836;-75
2021/03/03 04:43:24;;;;;;;;;;;12.30;65.20;;;;;;5011998;28;75149;-78
2021/03/03 04:45:49;;;;;;;;;;;12.30;65.10;;;;;;5010591;27;74619;-62
2021/03/03 04:48:15;;;;;;;;;;;12.30;65.10;;;;;;5010218;28;75013;-71
2021/03/03 04:50:41;;;;;;;;;;;12.40;65.10;;;;;;5010239;27;75302;-62
2021/03/03 04:53:06;;;;;;;;;;;12.40;65.10;;;;;;5009358;28;77063;-67
2021/03/03 04:55:32;;;;;;;;;;;12.40;65.10;;;;;;5008849;28;77847;-68
2021/03/03 04:57:58;;;;;;;;;;;12.30;64.90;;;;;;5010683;27;77178;-66
2021/03/03 05:00:24;;;;;;;;;;;12.30;65.10;;;;;;5010346;28;75093;-78
2021/03/03 05:02:49;;;;;;;;;;;12.20;65.50;;;;;;5009751;27;75107;-68
2021/03/03 05:05:15;;;;;;;;;;;12.20;65.50;;;;;;5010274;28;74641;-65
2021/03/03 05:07:41;;;;;;;;;;;12.20;65.60;;;;;;5009625;27;75210;-68
2021/03/03 05:10:07;;;;;;;;;;;12.20;65.60;;;;;;5009760;28;75601;-67
2021/03/03 05:12:32;;;;;;;;;;;12.30;65.60;;;;;;5010134;28;74833;-74
2021/03/03 05:14:58;;;;;;;;;;;12.30;65.60;;;;;;5009668;27;75219;-69
2021/03/03 05:17:23;;;;;;;;;;;12.30;65.50;;;;;;5010926;27;77547;-79
2021/03/03 05:19:49;;;;;;;;;;;12.30;65.60;;;;;;5011217;27;74680;-80
2021/03/03 05:22:15;;;;;;;;;;;12.30;65.50;;;;;;5012679;28;75123;-68
2021/03/03 05:24:41;;;;;;;;;;;12.30;65.30;;;;;;5012957;27;74472;-66
2021/03/03 05:27:06;;;;;;;;;;;12.30;65.20;;;;;;5012488;28;74437;-71
2021/03/03 05:29:32;;;;;;;;;;;12.30;65.20;;;;;;5012633;28;75086;-80
2021/03/03 05:31:58;;;;;;;;;;;12.40;65.20;;;;;;5012700;27;74412;-76
2021/03/03 05:34:24;;;;;;;;;;;12.30;65.10;;;;;;5010898;27;77652;-70
2021/03/03 05:36:49;;;;;;;;;;;12.40;65.00;;;;;;5010598;27;75626;-74
2021/03/03 05:39:15;;;;;;;;;;;12.40;65.00;;;;;;5012572;28;75695;-74
2021/03/03 05:41:41;;;;;;;;;;;12.40;65.00;;;;;;5012405;28;75177;-74
2021/03/03 05:44:07;;;;;;;;;;;12.40;65.00;;;;;;5012407;28;75012;-73
2021/03/03 05:46:36;;;;;;;;;;;12.30;65.10;;;;;;5010804;28;77021;-73
2021/03/03 05:49:02;;;;;;;;;;;12.30;65.30;;;;;;5012841;27;75358;-75
2021/03/03 05:51:28;;;;;;;;;;;12.30;65.30;;;;;;5012500;28;75767;-72
2021/03/03 05:53:54;;;;;;;;;;;12.30;65.30;;;;;;5011541;28;75508;-63
2021/03/03 05:56:23;;;;;;;;;;;12.30;65.30;;;;;;5012618;28;74573;-67
2021/03/03 05:58:49;;;;;;;;;;;12.20;65.30;;;;;;5012691;28;75221;-70
2021/03/03 06:01:15;;;;;;;;;;;12.20;65.30;;;;;;5012446;27;74553;-64
2021/03/03 06:03:41;;;;;;;;;;;12.20;65.40;;;;;;5012791;28;74911;-70
2021/03/03 06:06:07;;;;;;;;;;;12.20;65.40;;;;;;5012015;27;74498;-71
2021/03/03 06:08:33;;;;;;;;;;;12.10;65.30;;;;;;5012661;27;77115;-72
2021/03/03 06:10:59;;;;;;;;;;;12.00;65.50;;;;;;5012467;27;74550;-68
2021/03/03 06:13:25;;;;;;;;;;;12.00;65.70;;;;;;5012776;27;77747;-66
2021/03/03 06:15:51;;;;;;;;;;;11.90;65.90;;;;;;5012551;28;74660;-63
2021/03/03 06:18:17;;;;;;;;;;;11.90;66.10;;;;;;5010751;28;75898;-63
2021/03/03 06:20:44;;;;;;;;;;;11.80;66.20;;;;;;5010229;27;77678;-69
2021/03/03 06:23:14;;;;;;;;;;;11.80;66.40;;;;;;5010001;27;75216;-67
2021/03/03 06:25:40;;;;;;;;;;;11.80;66.50;;;;;;5010298;27;75636;-64
2021/03/03 06:28:06;;;;;;;;;;;11.70;66.70;;;;;;5011215;27;77202;-63
2021/03/03 06:30:31;;;;;;;;;;;11.70;66.90;;;;;;5067444;27;75669;-62
2021/03/03 06:32:59;;;;;;;;;;;11.60;67.00;;;;;;5045695;27;76213;-63
2021/03/03 06:35:37;;;;;;;;;;;11.60;67.20;;;;;;5032640;27;75709;-64
2021/03/03 06:38:03;;;;;;;;;;;11.50;67.30;;;;;;5025325;27;78127;-67
2021/03/03 06:40:28;;;;;;;;;;;11.50;67.40;;;;;;5043784;27;76682;-65
2021/03/03 06:42:55;;;;;;;;;;;11.50;67.50;;;;;;5054897;27;78797;-65
2021/03/03 06:45:30;;;;;;;;;;;11.50;67.50;;;;;;5031468;27;76326;-64
2021/03/03 06:47:56;;;;;;;;;;;11.50;67.60;;;;;;5019279;27;76402;-64
2021/03/03 06:50:31;;;;;;;;;;;11.50;67.70;;;;;;5053255;27;75073;-65
2021/03/03 06:52:56;;;;;;;;;;;11.40;67.70;;;;;;5063474;27;77370;-64
2021/03/03 06:55:22;;;;;;;;;;;11.50;67.80;;;;;;5086107;27;77041;-65
2021/03/03 06:57:47;;;;;;;;;;;11.50;67.70;;;;;;5045440;27;74737;-67
2021/03/03 07:00:13;;;;;;;;;;;11.60;67.80;;;;;;5073233;27;76198;-67
2021/03/03 07:02:39;;;;;;;;;;;11.60;67.70;;;;;;4998956;27;77443;-68
2021/03/03 07:05:05;;;;;;;;;;;11.70;67.50;;;;;;5004544;27;77140;-68
2021/03/03 07:07:31;;;;;;;;;;;11.70;67.40;;;;;;5033518;27;76802;-66
2021/03/03 07:10:00;;;;;;;;;;;11.80;67.40;;;;;;5064143;27;77030;-64
2021/03/03 07:12:26;;;;;;;;;;;11.80;67.30;;;;;;5056624;27;76406;-65
2021/03/03 07:14:56;;;;;;;;;;;11.80;67.20;;;;;;5022305;27;76228;-60
2021/03/03 07:17:23;;;;;;;;;;;11.90;67.10;;;;;;5015797;27;77638;-60
2021/03/03 07:19:50;;;;;;;;;;;11.90;67.00;;;;;;5081459;27;76280;-60
2021/03/03 07:22:26;;;;;;;;;;;11.90;66.90;;;;;;5097607;27;77041;-60
2021/03/03 07:24:59;;;;;;;;;;;11.90;66.90;;;;;;5056905;27;76583;-60
2021/03/03 07:27:25;;;;;;;;;;;11.90;66.80;;;;;;5083913;27;75849;-64
2021/03/03 07:29:55;;;;;;;;;;;12.00;66.70;;;;;;5023353;27;77237;-62
2021/03/03 07:32:21;;;;;;;;;;;12.00;66.80;;;;;;5071329;27;76414;-65
2021/03/03 07:34:48;;;;;;;;;;;12.00;66.80;;;;;;5052204;27;76150;-64
2021/03/03 07:37:14;;;;;;;;;;;12.00;66.80;;;;;;5090434;27;77335;-60
2021/03/03 07:39:42;;;;;;;;;;;12.10;66.70;;;;;;5072053;27;76047;-61
2021/03/03 07:42:14;;;;;;;;;;;12.00;66.70;;;;;;5082834;27;77457;-60
2021/03/03 07:44:41;;;;;;;;;;;12.00;66.70;;;;;;5101068;27;75661;-61
2021/03/03 07:47:09;;;;;;;;;;;12.10;66.70;;;;;;5057790;27;75551;-60
2021/03/03 07:49:35;;;;;;;;;;;12.20;66.60;;;;;;5010451;27;79096;-63
2021/03/03 07:52:01;;;;;;;;;;;12.20;66.40;;;;;;5037220;27;77132;-63
2021/03/03 07:54:27;;;;;;;;;;;12.20;66.40;;;;;;5039828;27;75839;-62
2021/03/03 07:56:53;;;;;;;;;;;12.30;66.30;;;;;;5031376;27;76062;-62
2021/03/03 07:59:19;;;;;;;;;;;12.40;66.10;;;;;;5082954;27;75642;-61
2021/03/03 08:01:49;;;;;;;;;;;12.40;66.00;;;;;;5045702;27;75864;-59
2021/03/03 08:04:34;;;;;;;;;;;12.50;65.70;;;;;;5057811;27;76468;-62
2021/03/03 08:07:13;;;;;;;;;;;12.50;65.50;;;;;;5047864;27;79119;-62
2021/03/03 08:09:38;;;;;;;;;;;12.60;65.50;;;;;;5096016;27;76414;-63
2021/03/03 08:12:04;;;;;;;;;;;12.60;65.40;;;;;;5029054;27;76219;-61
2021/03/03 08:14:37;;;;;;;;;;;12.70;65.20;;;;;;5031952;27;77308;-60
2021/03/03 08:17:07;;;;;;;;;;;12.80;65.10;;;;;;5058396;27;76851;-61
2021/03/03 08:19:52;;;;;;;;;;;12.90;64.70;;;;;;5071193;27;76883;-60
2021/03/03 08:22:19;;;;;;;;;;;12.90;64.70;;;;;;5010664;27;78758;-60
2021/03/03 08:24:44;;;;;;;;;;;12.90;64.50;;;;;;5006172;27;75764;-61
2021/03/03 08:27:29;;;;;;;;;;;13.00;64.30;;;;;;5026373;27;75970;-60
2021/03/03 08:30:14;;;;;;;;;;;13.10;64.20;;;;;;4999551;27;78032;-60
2021/03/03 08:32:40;;;;;;;;;;;13.20;63.80;;;;;;4994401;27;77595;-60
2021/03/03 08:35:09;;;;;;;;;;;13.20;63.50;;;;;;5026709;27;76517;-61
2021/03/03 08:37:35;;;;;;;;;;;13.30;63.50;;;;;;5005117;27;76551;-61
2021/03/03 08:40:02;;;;;;;;;;;13.40;63.50;;;;;;5055793;27;76633;-62
2021/03/03 08:42:29;;;;;;;;;;;13.40;63.30;;;;;;5000575;27;76551;-61
2021/03/03 08:45:03;;;;;;;;;;;13.60;63.00;;;;;;5098451;27;76579;-59
2021/03/03 08:47:45;;;;;;;;;;;13.60;62.70;;;;;;5100161;27;76603;-60
2021/03/03 08:50:30;;;;;;;;;;;13.70;62.40;;;;;;5069478;27;76987;-61
2021/03/03 08:53:15;;;;;;;;;;;13.70;62.30;;;;;;5081284;27;76628;-60
2021/03/03 08:55:40;;;;;;;;;;;13.80;62.10;;;;;;5091897;27;75735;-60
2021/03/03 08:58:25;;;;;;;;;;;13.90;61.90;;;;;;5042596;27;77433;-61
2021/03/03 09:00:50;;;;;;;;;;;14.00;61.60;;;;;;5038872;27;76490;-60
2021/03/03 09:03:19;;;;;;;;;;;14.10;61.30;;;;;;5024254;27;95304;-61
2021/03/03 09:05:44;;;;;;;;;;;14.20;60.90;;;;;;5006776;27;77517;-59
2021/03/03 09:08:20;;;;;;;;;;;14.30;60.90;;;;;;5037517;27;75380;-61
2021/03/03 09:10:45;;;;;;;;;;;14.30;60.40;;;;;;5010830;27;76611;-59
2021/03/03 09:13:27;;;;;;;;;;;14.40;60.60;;;;;;5021249;27;77329;-61
2021/03/03 09:16:02;;;;;;;;;;;14.40;60.20;;;;;;5086160;27;76121;-62
2021/03/03 09:18:28;;;;;;;;;;;14.50;60.30;;;;;;5051642;27;77919;-59
2021/03/03 09:21:23;;;;;;;;;;;14.50;59.80;;;;;;5089551;27;75871;-59
2021/03/03 09:23:49;;;;;;;;;;;14.50;59.20;;;;;;5006565;27;76395;-59
2021/03/03 09:26:20;;;;;;;;;;;14.40;59.90;;;;;;5018248;27;76164;-60
2021/03/03 09:28:46;;;;;;;;;;;14.40;59.50;;;;;;5051282;27;77150;-61
2021/03/03 09:31:31;;;;;;;;;;;14.50;60.00;;;;;;5031673;27;76650;-60
2021/03/03 09:33:57;;;;;;;;;;;14.70;59.70;;;;;;5037530;27;76702;-62
2021/03/03 09:36:24;;;;;;;;;;;14.90;59.40;;;;;;5039391;27;76349;-63
2021/03/03 09:38:56;;;;;;;;;;;15.00;59.00;;;;;;5013072;27;77273;-61
2021/03/03 09:41:22;;;;;;;;;;;15.20;58.50;;;;;;4994749;27;76658;-63
2021/03/03 09:43:57;;;;;;;;;;;15.30;58.10;;;;;;5041824;27;76615;-60
2021/03/03 09:46:23;;;;;;;;;;;15.40;57.80;;;;;;5097663;27;78110;-60
2021/03/03 09:48:48;;;;;;;;;;;15.50;57.30;;;;;;5024993;27;77890;-60
2021/03/03 09:51:14;;;;;;;;;;;15.60;56.90;;;;;;5050351;27;76983;-62
2021/03/03 09:53:50;;;;;;;;;;;15.70;56.50;;;;;;5042225;27;77325;-61
2021/03/03 09:56:25;;;;;;;;;;;15.90;56.60;;;;;;5087222;27;78049;-61
2021/03/03 09:58:51;;;;;;;;;;;15.90;55.90;;;;;;5034879;27;79471;-61
2021/03/03 10:01:17;;;;;;;;;;;16.00;56.10;;;;;;5098482;27;75895;-60
2021/03/03 10:03:42;;;;;;;;;;;16.20;55.70;;;;;;5001884;27;75895;-63
2021/03/03 10:06:08;;;;;;;;;;;16.30;55.50;;;;;;4999726;27;75792;-63
2021/03/03 10:08:34;;;;;;;;;;;16.40;55.20;;;;;;5044600;27;76452;-61
2021/03/03 10:10:59;;;;;;;;;;;16.40;54.60;;;;;;5046991;27;76227;-61
2021/03/03 10:13:26;;;;;;;;;;;16.60;54.60;;;;;;5054199;27;76356;-61
2021/03/03 10:15:52;;;;;;;;;;;16.70;54.30;;;;;;5044969;27;76068;-63
2021/03/03 10:18:17;;;;;;;;;;;16.70;54.10;;;;;;5032196;27;76673;-61
2021/03/03 10:20:44;;;;;;;;;;;16.60;53.20;;;;;;5062895;27;75926;-61
2021/03/03 10:23:11;;;;;;;;;;;16.50;54.10;;;;;;5046757;27;78014;-62
2021/03/03 10:25:48;;;;;;;;;;;16.50;54.60;;;;;;5020014;27;76988;-60
2021/03/03 10:28:15;;;;;;;;;;;16.60;54.40;;;;;;5040146;27;75745;-62
2021/03/03 10:30:42;;;;;;;;;;;16.80;54.20;;;;;;5057854;27;76727;-62
2021/03/03 10:33:09;;;;;;;;;;;16.90;53.70;;;;;;5073068;27;77648;-62
2021/03/03 10:35:45;;;;;;;;;;;16.90;52.90;;;;;;5035105;27;77733;-66
2021/03/03 10:38:11;;;;;;;;;;;16.80;53.10;;;;;;5031969;27;75878;-61
2021/03/03 10:40:41;;;;;;;;;;;16.80;53.40;;;;;;5099405;27;75340;-61
2021/03/03 10:43:14;;;;;;;;;;;16.90;53.10;;;;;;5056300;27;77819;-60
2021/03/03 10:45:39;;;;;;;;;;;17.00;51.70;;;;;;5030334;27;76339;-61
2021/03/03 10:48:06;;;;;;;;;;;16.80;52.80;;;;;;5004035;27;75727;-61
2021/03/03 10:50:31;;;;;;;;;;;16.80;52.80;;;;;;5001532;27;76575;-62
2021/03/03 10:53:02;;;;;;;;;;;16.90;52.80;;;;;;4998341;27;76637;-62
2021/03/03 10:55:32;;;;;;;;;;;16.90;53.10;;;;;;5026117;27;77138;-61
2021/03/03 10:58:08;;;;;;;;;;;17.10;53.00;;;;;;5024827;27;75951;-61
2021/03/03 11:00:52;;;;;;;;;;;17.30;52.40;;;;;;5084258;27;77336;-61
2021/03/03 11:03:18;;;;;;;;;;;17.50;51.90;;;;;;5036498;27;77517;-62
2021/03/03 11:05:44;;;;;;;;;;;17.70;51.30;;;;;;5080335;27;76581;-61
2021/03/03 11:08:09;;;;;;;;;;;17.90;51.00;;;;;;4998095;27;75773;-61
2021/03/03 11:10:35;;;;;;;;;;;18.10;50.00;;;;;;5012289;27;76508;-61
2021/03/03 11:13:00;;;;;;;;;;;18.20;49.90;;;;;;5024291;27;76213;-61
2021/03/03 11:15:26;;;;;;;;;;;18.40;49.60;;;;;;5011141;27;77741;-62
2021/03/03 11:17:52;;;;;;;;;;;18.40;49.10;;;;;;5070954;27;77114;-61
2021/03/03 11:20:18;;;;;;;;;;;18.60;48.90;;;;;;5075746;27;75968;-66
2021/03/03 11:22:43;;;;;;;;;;;18.70;48.20;;;;;;5101164;27;75119;-63
2021/03/03 11:25:09;;;;;;;;;;;18.80;48.50;;;;;;5100007;27;76041;-65
2021/03/03 11:27:35;;;;;;;;;;;18.90;47.80;;;;;;5100955;27;76462;-62
2021/03/03 11:30:01;;;;;;;;;;;18.90;47.80;;;;;;5055085;27;76462;-65
2021/03/03 11:32:26;;;;;;;;;;;19.00;47.50;;;;;;5044949;27;76810;-65
2021/03/03 11:34:52;;;;;;;;;;;19.00;47.70;;;;;;5049838;27;75959;-64
2021/03/03 11:37:18;;;;;;;;;;;19.00;47.30;;;;;;5044160;27;77126;-66
2021/03/03 11:39:43;;;;;;;;;;;19.00;47.40;;;;;;5059299;27;76689;-64
2021/03/03 11:42:09;;;;;;;;;;;19.10;47.60;;;;;;4996540;27;78016;-65
2021/03/03 11:44:35;;;;;;;;;;;19.20;47.10;;;;;;5068960;27;76886;-64
2021/03/03 11:47:01;;;;;;;;;;;19.30;46.70;;;;;;5098850;27;76562;-63
2021/03/03 11:49:26;;;;;;;;;;;19.30;46.80;;;;;;5056009;27;76354;-61
2021/03/03 11:51:52;;;;;;;;;;;19.40;46.90;;;;;;5100838;27;76483;-63
2021/03/03 11:54:17;;;;;;;;;;;19.40;46.60;;;;;;5093491;27;77253;-63
2021/03/03 11:56:45;;;;;;;;;;;19.40;46.30;;;;;;5040160;27;76558;-62
2021/03/03 11:59:11;;;;;;;;;;;19.50;46.40;;;;;;5050483;27;76839;-62
2021/03/03 12:01:37;;;;;;;;;;;19.50;46.00;;;;;;5001135;27;76856;-62
2021/03/03 12:04:02;;;;;;;;;;;19.50;46.00;;;;;;5071630;27;76307;-62
2021/03/03 12:06:28;;;;;;;;;;;19.50;45.70;;;;;;5008400;27;76760;-62
2021/03/03 12:08:54;;;;;;;;;;;19.50;45.50;;;;;;4997346;27;76726;-62
2021/03/03 12:11:19;;;;;;;;;;;19.60;46.20;;;;;;5048697;27;78960;-62
2021/03/03 12:13:45;;;;;;;;;;;19.70;45.70;;;;;;5087343;27;77887;-66
2021/03/03 12:16:11;;;;;;;;;;;19.70;45.70;;;;;;5056174;27;75730;-62
2021/03/03 12:18:36;;;;;;;;;;;19.80;45.20;;;;;;5039540;27;76375;-61
2021/03/03 12:21:02;;;;;;;;;;;19.90;45.30;;;;;;5024202;27;76277;-62
2021/03/03 12:23:28;;;;;;;;;;;19.90;44.50;;;;;;4995819;27;77094;-62
2021/03/03 12:25:53;;;;;;;;;;;20.00;44.80;;;;;;5062886;27;76341;-62
2021/03/03 12:28:20;;;;;;;;;;;20.10;44.90;;;;;;5017442;27;76525;-62
2021/03/03 12:30:46;;;;;;;;;;;20.10;44.20;;;;;;5066845;27;76362;-62
2021/03/03 12:33:11;;;;;;;;;;;20.20;44.70;;;;;;5100081;27;76468;-62
2021/03/03 12:35:37;;;;;;;;;;;20.20;44.00;;;;;;5070166;27;78287;-62
2021/03/03 12:38:02;;;;;;;;;;;20.20;44.10;;;;;;5064294;27;76116;-62
2021/03/03 12:40:28;;;;;;;;;;;20.20;43.80;;;;;;5020546;27;76440;-62
2021/03/03 12:42:54;;;;;;;;;;;20.20;43.90;;;;;;5033926;27;76952;-61
2021/03/03 12:45:19;;;;;;;;;;;20.30;44.20;;;;;;5086504;27;77202;-62
2021/03/03 12:47:45;;;;;;;;;;;20.40;43.80;;;;;;5034651;27;78304;-62
2021/03/03 12:50:11;;;;;;;;;;;20.40;43.40;;;;;;5052460;27;76721;-62
2021/03/03 12:52:37;;;;;;;;;;;20.40;43.70;;;;;;4996405;27;76649;-62
2021/03/03 12:55:03;;;;;;;;;;;20.50;43.10;;;;;;5052866;27;76098;-61
2021/03/03 12:57:29;;;;;;;;;;;20.60;43.90;;;;;;5069294;27;76266;-62
2021/03/03 12:59:54;;;;;;;;;;;20.60;43.40;;;;;;5099604;27;76607;-62
2021/03/03 13:02:20;;;;;;;;;;;20.70;43.50;;;;;;5076380;27;78257;-61
2021/03/03 13:04:46;;;;;;;;;;;20.70;43.20;;;;;;4995140;27;75466;-63
2021/03/03 13:07:11;;;;;;;;;;;20.70;43.10;;;;;;5037561;27;76828;-63
2021/03/03 13:09:37;;;;;;;;;;;20.90;43.20;;;;;;5079905;27;76176;-64
2021/03/03 13:12:03;;;;;;;;;;;21.00;42.70;;;;;;5075264;27;77426;-62
2021/03/03 13:14:28;;;;;;;;;;;21.00;42.70;;;;;;5059081;27;76925;-62
2021/03/03 13:16:54;;;;;;;;;;;21.20;42.40;;;;;;5088371;27;76435;-62
2021/03/03 13:19:20;;;;;;;;;;;21.30;42.00;;;;;;5049972;27;76493;-62
2021/03/03 13:21:45;;;;;;;;;;;21.40;41.90;;;;;;5097787;27;77111;-62
2021/03/03 13:24:11;;;;;;;;;;;21.50;41.50;;;;;;5087767;27;76195;-61
2021/03/03 13:26:37;;;;;;;;;;;21.50;41.60;;;;;;5001456;27;76220;-61
2021/03/03 13:29:02;;;;;;;;;;;21.70;41.30;;;;;;5032809;27;76164;-61
2021/03/03 13:31:29;;;;;;;;;;;21.80;41.00;;;;;;5017266;27;77015;-63
2021/03/03 13:33:54;;;;;;;;;;;21.90;41.10;;;;;;5052559;27;77118;-62
2021/03/03 13:36:20;;;;;;;;;;;22.00;40.30;;;;;;5038737;27;78009;-63
2021/03/03 13:38:46;;;;;;;;;;;22.10;40.20;;;;;;5058111;27;76035;-63
2021/03/03 13:41:11;;;;;;;;;;;22.20;40.30;;;;;;5053244;27;75698;-62
2021/03/03 13:43:37;;;;;;;;;;;22.30;40.40;;;;;;5098875;27;76378;-62
2021/03/03 13:46:03;;;;;;;;;;;22.30;39.90;;;;;;5118051;27;75463;-63
2021/03/03 13:48:28;;;;;;;;;;;22.40;39.80;;;;;;5117741;27;75263;-63
2021/03/03 13:50:54;;;;;;;;;;;22.40;39.60;;;;;;5115865;27;77576;-65
2021/03/03 13:53:20;;;;;;;;;;;22.40;39.80;;;;;;5116329;27;75534;-62
2021/03/03 13:55:45;;;;;;;;;;;22.50;40.00;;;;;;5117945;27;74538;-64
2021/03/03 13:58:11;;;;;;;;;;;22.50;39.20;;;;;;5116042;27;77261;-62
2021/03/03 14:00:36;;;;;;;;;;;22.50;39.70;;;;;;5118053;27;74631;-65
2021/03/03 14:03:02;;;;;;;;;;;22.50;39.40;;;;;;5115792;27;76063;-62
2021/03/03 14:05:28;;;;;;;;;;;22.50;39.30;;;;;;5115753;27;77907;-61
2021/03/03 14:07:53;;;;;;;;;;;22.60;39.30;;;;;;5115688;27;76378;-61
2021/03/03 14:10:19;;;;;;;;;;;22.70;39.40;;;;;;5115510;27;76446;-63
2021/03/03 14:12:45;;;;;;;;;;;22.90;39.10;;;;;;5115929;27;77038;-63
2021/03/03 14:15:11;;;;;;;;;;;23.20;39.00;;;;;;5115494;27;76881;-62